Fortune Brands Home & Security Net Profit Margin 2010-2020 | FBHS

Current and historical net profit margin for Fortune Brands Home & Security (FBHS) from 2010 to 2020. Net profit margin can be defined as net Income as a portion of total sales revenue. Fortune Brands Home & Security net profit margin for the three months ending December 31, 2020 was .
Fortune Brands Home & Security Net Profit Margin Historical Data
Date TTM Revenue TTM Net Income Net Margin
2020-12-31 $6.09B $0.55B 9.10%
2020-09-30 $5.90B $0.49B 8.37%
2020-06-30 $5.71B $0.44B 7.62%
2020-03-31 $5.84B $0.46B 7.83%
2019-12-31 $5.77B $0.43B 7.51%
2019-09-30 $5.72B $0.41B 7.24%
2019-06-30 $5.64B $0.41B 7.24%
2019-03-31 $5.56B $0.40B 7.20%
2018-12-31 $5.49B $0.39B 7.11%
2018-09-30 $5.45B $0.43B 7.95%
2018-06-30 $5.42B $0.46B 8.55%
2018-03-31 $5.35B $0.47B 8.80%
2017-12-31 $5.28B $0.47B 8.95%
2017-09-30 $5.20B $0.45B 8.63%
2017-06-30 $5.13B $0.44B 8.61%
2017-03-31 $5.07B $0.43B 8.47%
2016-12-31 $4.99B $0.41B 8.28%
2016-09-30 $4.91B $0.40B 8.09%
2016-06-30 $4.87B $0.38B 7.85%
2016-03-31 $4.74B $0.34B 7.12%
2015-12-31 $4.58B $0.32B 6.90%
2015-09-30 $4.40B $0.27B 6.21%
2015-06-30 $4.21B $0.14B 3.42%
2015-03-31 $4.08B $0.16B 3.85%
2014-12-31 $4.01B $0.16B 3.94%
2014-09-30 $3.70B $0.18B 4.78%
2014-06-30 $3.69B $0.26B 7.10%
2014-03-31 $3.70B $0.23B 6.29%
2013-12-31 $3.70B $0.23B 6.18%
2013-09-30 $3.47B $0.18B 5.28%
2013-06-30 $3.33B $0.16B 4.77%
2013-03-31 $3.23B $0.14B 4.43%
2012-12-31 $3.14B $0.12B 3.80%
2012-09-30 $3.52B $0.03B 0.85%
2012-06-30 $3.46B $-0.01B -0.23%
2012-03-31 $3.41B $-0.01B -0.35%
2011-12-31 $3.33B $-0.04B -1.08%
2011-06-30 $2.42B $0.06B 2.48%
Sector Industry Market Cap Revenue
Retail/Wholesale Retail - Home Furnishings $11.892B $6.090B
Fortune Brands Home & Security, Inc provides home and security products in the United States. It manufactures custom, semi-custom, and stock cabinetry for the kitchen, bath, and other parts. The Company is also engaged in manufacturing and selling fiberglass and steel entry door systems, vinyl-framed windows and patio doors and urethane millwork product lines under the Therma-Tru, Simonton, and Fypon brand names in the United States and Canada. Fortune Brand also provides locks, safety, and security devices and tool storage and garage organization products.
Stock Name Country Market Cap PE Ratio
Williams-Sonoma (WSM) United States $9.818B 17.73
RH (RH) United States $9.161B 27.91
Tempur Sealy (TPX) United States $7.419B 18.92
At Home Group (HOME) United States $1.585B 12.81
Lovesac (LOVE) United States $0.809B 0.00
Haverty Furniture (HVT) United States $0.654B 18.79
Haverty Furniture (HVT.A) $0.650B 18.69
Ethan Allen Interiors (ETH) United States $0.641B 27.67
Kirkland's (KIRK) United States $0.339B 0.00
Casper Sleep (CSPR) United States $0.318B 0.00